Time;durP1;ratioP1;P1;durP2;ratioP2;P2;SDS_P1;SDS_P2;PMS_P1;PMS_P2;Temp;Humidity;BMP_temperature;BMP_pressure;BME280_temperature;BME280_humidity;BME280_pressure;Samples;Min_cycle;Max_cycle;Signal;HPM_P1;HPM_P2
2024/01/30 00:00:08;;;;;;;7.28;4.72;;;;;;;7.96;56.57;102140.13;677075;29;1492;-89
2024/01/30 00:00:28;;;;;;;8.30;4.28;;;;;;;7.94;56.58;102134.81;679912;29;1465;-89
2024/01/30 00:00:49;;;;;;;8.23;4.10;;;;;;;7.93;56.52;102137.34;682365;28;1322;-88
2024/01/30 00:01:09;;;;;;;8.65;4.47;;;;;;;7.93;56.55;102133.03;677031;29;1524;-89
2024/01/30 00:01:30;;;;;;;7.60;5.00;;;;;;;7.98;56.51;102143.69;677352;29;1208;-89
2024/01/30 00:01:51;;;;;;;8.83;5.53;;;;;;;7.95;56.34;102146.13;680057;29;1146;-89
2024/01/30 00:02:11;;;;;;;10.20;5.35;;;;;;;7.95;56.17;102144.44;671779;29;1486;-88
2024/01/30 00:02:32;;;;;;;10.60;5.33;;;;;;;7.97;56.57;102146.22;674720;29;1310;-88
2024/01/30 00:02:53;;;;;;;10.05;5.63;;;;;;;7.94;56.03;102140.00;676937;29;1539;-88
2024/01/30 00:03:13;;;;;;;9.07;5.47;;;;;;;7.93;56.44;102148.63;672273;29;1233;-89
2024/01/30 00:03:34;;;;;;;11.67;5.30;;;;;;;7.93;56.44;102139.94;674835;29;941;-89
2024/01/30 00:03:54;;;;;;;10.98;4.75;;;;;;;7.91;56.74;102134.63;672411;29;1586;-88
2024/01/30 00:04:16;;;;;;;9.67;4.60;;;;;;;7.93;56.30;102139.94;677371;29;1158;-88
2024/01/30 00:04:37;;;;;;;5.43;4.07;;;;;;;7.90;56.37;102143.25;677341;29;1903;-88
2024/01/30 00:04:57;;;;;;;5.30;3.80;;;;;;;7.88;56.52;102138.75;677060;29;1740;-89
2024/01/30 00:05:18;;;;;;;12.52;4.80;;;;;;;7.88;56.28;102131.88;677308;29;1541;-88
2024/01/30 00:05:39;;;;;;;19.50;5.23;;;;;;;7.89;56.41;102137.94;677430;29;1346;-89
2024/01/30 00:06:00;;;;;;;20.58;5.85;;;;;;;7.92;56.16;102144.22;677002;29;1465;-89
2024/01/30 00:06:22;;;;;;;14.30;5.40;;;;;;;7.90;56.50;102137.13;674446;29;968;-89
2024/01/30 00:06:43;;;;;;;7.55;5.10;;;;;;;7.89;56.59;102140.53;674501;29;1219;-89
2024/01/30 00:07:04;;;;;;;6.75;4.50;;;;;;;7.88;56.14;102138.75;679720;28;1504;-89
2024/01/30 00:07:24;;;;;;;6.93;4.47;;;;;;;7.88;56.09;102139.66;680063;29;820;-89
2024/01/30 00:07:45;;;;;;;8.20;4.40;;;;;;;7.90;56.27;102148.44;682594;29;1349;-89
2024/01/30 00:08:06;;;;;;;9.55;4.40;;;;;;;7.87;56.35;102135.25;680058;29;1630;-89
2024/01/30 00:08:26;;;;;;;10.13;4.35;;;;;;;7.87;56.07;102145.63;677478;29;1190;-89
2024/01/30 00:08:48;;;;;;;10.17;4.63;;;;;;;7.90;56.33;102140.66;677323;29;1195;-89
2024/01/30 00:09:10;;;;;;;11.18;5.03;;;;;;;7.89;56.42;102143.13;676686;29;1826;-89
2024/01/30 00:09:31;;;;;;;10.13;5.30;;;;;;;7.84;56.55;102140.25;679399;29;1008;-89
2024/01/30 00:09:52;;;;;;;7.28;4.35;;;;;;;7.85;56.15;102139.47;680062;29;1272;-89
2024/01/30 00:10:12;;;;;;;5.45;4.40;;;;;;;7.84;56.07;102137.66;674461;29;1584;-88
2024/01/30 00:10:33;;;;;;;5.80;4.50;;;;;;;7.81;56.41;102135.78;677388;29;1170;-89
2024/01/30 00:10:53;;;;;;;7.23;4.93;;;;;;;7.84;56.37;102134.19;677163;29;1561;-88
2024/01/30 00:11:15;;;;;;;7.60;4.85;;;;;;;7.81;56.00;102135.78;674760;29;1355;-87
2024/01/30 00:11:36;;;;;;;8.00;4.40;;;;;;;7.81;56.48;102140.09;674659;29;1341;-89
2024/01/30 00:11:56;;;;;;;6.95;4.22;;;;;;;7.86;56.36;102143.84;679254;29;1487;-88
2024/01/30 00:12:17;;;;;;;7.63;4.00;;;;;;;7.79;55.90;102131.28;675736;29;1134;-88
2024/01/30 00:12:40;;;;;;;7.80;4.40;;;;;;;7.84;56.77;102136.78;672907;29;1334;-88
2024/01/30 00:13:01;;;;;;;7.80;4.30;;;;;;;7.76;56.39;102132.00;674605;29;1108;-88
2024/01/30 00:13:22;;;;;;;4.73;4.10;;;;;;;7.80;56.54;102143.50;674767;29;1270;-88
2024/01/30 00:13:43;;;;;;;6.10;4.68;;;;;;;7.79;56.23;102133.88;674864;29;1007;-89
2024/01/30 00:14:04;;;;;;;6.82;4.68;;;;;;;7.85;56.32;102141.16;672798;29;1491;-88
2024/01/30 00:14:24;;;;;;;8.00;4.90;;;;;;;7.75;56.44;102130.19;669872;29;770;-89
2024/01/30 00:23:03;;;;;;;7.15;4.68;;;;;;;7.66;56.45;102134.81;682507;29;1250;-88
2024/01/30 00:23:24;;;;;;;6.60;4.50;;;;;;;7.71;56.09;102138.63;674180;29;1434;-87
2024/01/30 00:23:47;;;;;;;8.07;4.90;;;;;;;7.67;56.05;102128.81;679651;29;1295;-88
2024/01/30 00:24:08;;;;;;;8.20;5.10;;;;;;;7.65;56.47;102133.94;675143;29;1533;-88
2024/01/30 00:24:29;;;;;;;8.65;5.05;;;;;;;7.68;56.12;102131.53;677212;29;1535;-89
2024/01/30 00:24:50;;;;;;;8.00;5.03;;;;;;;7.63;55.89;102125.13;676529;29;1915;-88
2024/01/30 00:25:10;;;;;;;7.93;4.78;;;;;;;7.72;56.33;102142.09;674585;29;1588;-89
2024/01/30 00:25:31;;;;;;;6.32;4.35;;;;;;;7.71;56.53;102145.50;674690;29;1191;-88
2024/01/30 00:25:51;;;;;;;5.03;3.63;;;;;;;7.67;56.42;102137.53;672283;29;1156;-89
2024/01/30 00:26:12;;;;;;;4.18;3.58;;;;;;;7.62;56.61;102123.34;674501;29;1509;-89
2024/01/30 00:26:33;;;;;;;5.18;4.20;;;;;;;7.62;56.41;102125.94;674807;29;1158;-88
2024/01/30 00:26:53;;;;;;;11.50;5.23;;;;;;;7.67;56.30;102137.53;674654;29;1184;-89
2024/01/30 00:27:15;;;;;;;11.80;5.25;;;;;;;7.63;56.37;102127.72;674927;29;1128;-89
2024/01/30 00:27:35;;;;;;;12.70;5.03;;;;;;;7.63;56.18;102130.31;676269;29;1882;-89
2024/01/30 00:27:56;;;;;;;7.47;4.47;;;;;;;7.63;56.32;102135.53;674142;29;1548;-89
2024/01/30 00:28:17;;;;;;;12.85;4.65;;;;;;;7.59;56.12;102130.97;672240;29;1105;-89
2024/01/30 00:28:43;;;;;;;13.60;4.70;;;;;;;7.61;56.17;102133.66;673006;29;1137;-89
2024/01/30 00:29:04;;;;;;;9.80;4.85;;;;;;;7.63;56.23;102135.53;674492;29;1573;-89
2024/01/30 00:29:29;;;;;;;8.80;4.38;;;;;;;7.64;56.37;102137.34;676026;29;1206;-89
2024/01/30 00:29:50;;;;;;;8.95;4.30;;;;;;;7.63;56.43;102135.53;677474;29;864;-88
2024/01/30 00:30:11;;;;;;;15.82;4.68;;;;;;;7.61;56.49;102139.72;681582;29;1571;-89
2024/01/30 00:30:31;;;;;;;15.68;4.80;;;;;;;7.58;56.51;102129.16;677217;29;1414;-89
2024/01/30 00:30:52;;;;;;;15.05;4.68;;;;;;;7.57;56.42;102129.97;680127;29;832;-88
2024/01/30 00:31:12;;;;;;;8.15;4.55;;;;;;;7.58;56.30;102126.56;674140;29;1517;-88
2024/01/30 00:31:33;;;;;;;9.10;5.37;;;;;;;7.57;56.15;102135.16;679678;29;1652;-89
2024/01/30 00:31:54;;;;;;;7.22;4.85;;;;;;;7.63;56.28;102145.03;682464;29;1207;-88
2024/01/30 00:32:14;;;;;;;6.57;4.50;;;;;;;7.64;56.30;102141.63;674884;29;1293;-89
2024/01/30 00:32:35;;;;;;;6.30;3.90;;;;;;;7.59;56.08;102133.56;677248;29;1204;-89
2024/01/30 00:32:55;;;;;;;7.57;4.60;;;;;;;7.59;56.43;102138.75;677116;29;1508;-88
2024/01/30 00:33:16;;;;;;;7.27;4.57;;;;;;;7.61;56.02;102142.34;679990;29;1329;-88
2024/01/30 00:33:37;;;;;;;7.10;5.07;;;;;;;7.60;56.27;102137.94;679973;29;1178;-89
2024/01/30 00:33:57;;;;;;;6.80;5.15;;;;;;;7.61;56.02;102131.94;679696;29;1475;-88
2024/01/30 00:34:18;;;;;;;6.97;5.20;;;;;;;7.61;56.41;102137.13;680033;29;1195;-88
2024/01/30 00:34:38;;;;;;;5.70;4.70;;;;;;;7.57;56.16;102137.75;677274;29;1291;-89
2024/01/30 00:34:59;;;;;;;6.18;4.70;;;;;;;7.63;56.39;102148.50;675607;29;1480;-88
2024/01/30 00:35:21;;;;;;;8.23;5.10;;;;;;;7.58;56.32;102136.97;676868;29;1763;-89
2024/01/30 00:35:42;;;;;;;8.50;5.10;;;;;;;7.60;56.13;102137.94;679887;29;1383;-88
2024/01/30 00:36:03;;;;;;;8.70;5.05;;;;;;;7.57;56.09;102135.16;678420;29;1503;-89
2024/01/30 00:36:23;;;;;;;9.20;5.20;;;;;;;7.59;55.81;102137.84;677353;29;844;-89
2024/01/30 00:36:44;;;;;;;9.90;5.03;;;;;;;7.59;55.83;102141.34;677435;29;953;-89
2024/01/30 00:37:05;;;;;;;7.80;4.35;;;;;;;7.55;56.01;102128.94;674500;29;1513;-88
2024/01/30 00:37:25;;;;;;;6.20;4.00;;;;;;;7.57;55.95;102137.75;674828;29;864;-89
2024/01/30 00:37:46;;;;;;;7.20;4.30;;;;;;;7.58;56.00;102136.97;674642;29;1685;-89
2024/01/30 00:38:07;;;;;;;7.93;4.88;;;;;;;7.56;56.65;102127.28;676095;29;1465;-88
2024/01/30 00:38:28;;;;;;;7.47;4.88;;;;;;;7.57;56.13;102137.75;674822;29;942;-89
2024/01/30 00:38:48;;;;;;;6.57;4.80;;;;;;;7.57;56.50;102142.03;677290;29;1271;-89
2024/01/30 00:39:09;;;;;;;6.18;4.53;;;;;;;7.53;56.08;102136.69;675221;29;1568;-89
2024/01/30 00:39:30;;;;;;;6.80;4.90;;;;;;;7.53;56.09;102133.16;676621;29;1335;-89
2024/01/30 00:39:50;;;;;;;6.03;4.77;;;;;;;7.53;56.24;102133.16;677390;29;1202;-89
2024/01/30 00:40:15;;;;;;;6.07;4.65;;;;;;;7.51;56.00;102135.66;674481;29;963;-88
2024/01/30 00:40:36;;;;;;;6.60;4.07;;;;;;;7.52;55.88;102128.78;674785;29;1015;-89
2024/01/30 00:40:57;;;;;;;8.40;4.00;;;;;;;7.54;56.07;102130.66;679694;29;1631;-89
2024/01/30 00:41:19;;;;;;;9.23;4.40;;;;;;;7.50;56.12;102127.78;681296;29;1290;-89
2024/01/30 00:41:39;;;;;;;10.63;5.10;;;;;;;7.52;56.15;102133.97;672057;29;1259;-89
2024/01/30 00:42:00;;;;;;;10.07;5.20;;;;;;;7.49;55.95;102131.19;679737;29;1506;-88
2024/01/30 00:42:21;;;;;;;7.23;4.27;;;;;;;7.56;55.98;102140.25;677298;29;1071;-88
2024/01/30 00:42:42;;;;;;;5.65;4.13;;;;;;;7.55;56.17;102141.94;679959;29;1270;-89
2024/01/30 00:43:03;;;;;;;6.22;3.85;;;;;;;7.50;55.72;102127.78;676055;29;1539;-88
2024/01/30 00:43:25;;;;;;;7.50;4.13;;;;;;;7.46;56.29;102120.59;679989;29;1182;-89
2024/01/30 00:43:45;;;;;;;9.98;4.25;;;;;;;7.50;56.26;102133.88;674698;29;1265;-89
2024/01/30 00:44:06;;;;;;;9.07;4.23;;;;;;;7.42;56.32;102124.69;678315;29;1555;-89
2024/01/30 00:44:27;;;;;;;11.48;4.50;;;;;;;7.52;56.15;102140.09;679908;29;1209;-89
2024/01/30 00:44:48;;;;;;;9.23;4.70;;;;;;;7.45;56.15;102130.09;674642;29;1980;-89
2024/01/30 00:45:15;;;;;;;8.05;5.22;;;;;;;7.51;56.03;102146.03;677076;29;1456;-89
2024/01/30 00:45:36;;;;;;;7.78;5.50;;;;;;;7.43;55.99;102128.19;677140;29;1289;-88
2024/01/30 00:45:57;;;;;;;8.43;5.23;;;;;;;7.42;56.10;102124.69;677224;29;1517;-89
2024/01/30 00:46:18;;;;;;;7.32;4.63;;;;;;;7.46;56.20;102130.97;672210;29;1008;-89
2024/01/30 00:46:39;;;;;;;8.27;4.60;;;;;;;7.43;55.98;102130.81;674523;29;1709;-89
2024/01/30 00:46:59;;;;;;;7.55;5.00;;;;;;;7.43;55.99;102129.09;675176;29;1438;-89
2024/01/30 00:47:20;;;;;;;8.97;5.07;;;;;;;7.45;56.09;102129.19;677717;29;1724;-87
2024/01/30 00:47:41;;;;;;;7.60;4.63;;;;;;;7.44;56.30;102137.78;677257;29;1469;-88
2024/01/30 00:48:02;;;;;;;6.88;4.18;;;;;;;7.38;56.06;102123.59;674491;29;1485;-88
2024/01/30 00:48:22;;;;;;;8.00;4.70;;;;;;;7.43;56.23;102128.19;677466;29;855;-88
2024/01/30 00:48:43;;;;;;;7.88;4.60;;;;;;;7.43;56.44;102125.59;677498;29;1002;-88
2024/01/30 00:49:04;;;;;;;8.90;4.30;;;;;;;7.46;56.07;102137.09;674392;29;1623;-88
2024/01/30 00:49:24;;;;;;;18.23;4.28;;;;;;;7.46;55.95;102133.56;677400;29;1212;-89
2024/01/30 00:49:45;;;;;;;18.33;4.53;;;;;;;7.48;56.13;102134.56;674081;29;1183;-89
2024/01/30 00:50:06;;;;;;;17.65;4.95;;;;;;;7.46;55.93;102137.09;671925;29;1607;-89
2024/01/30 00:50:33;;;;;;;6.35;4.45;;;;;;;7.46;56.00;102136.19;674871;29;738;-89
2024/01/30 00:50:54;;;;;;;7.22;4.40;;;;;;;7.45;55.83;102129.19;674907;29;868;-89
2024/01/30 00:51:14;;;;;;;8.77;4.50;;;;;;;7.42;56.00;102121.22;677158;29;1262;-88
2024/01/30 00:51:35;;;;;;;8.60;4.60;;;;;;;7.42;55.87;102123.81;679934;29;1195;-88
2024/01/30 00:51:55;;;;;;;8.50;4.80;;;;;;;7.43;55.97;102126.50;677270;29;1142;-89
2024/01/30 00:52:16;;;;;;;7.77;4.70;;;;;;;7.40;55.75;102119.44;672227;29;1164;-89
2024/01/30 00:52:38;;;;;;;7.18;4.68;;;;;;;7.45;56.21;102124.00;675149;29;1122;-89
2024/01/30 00:52:59;;;;;;;6.47;4.00;;;;;;;7.43;55.87;102120.41;674691;29;1690;-88
2024/01/30 00:53:20;;;;;;;10.97;4.30;;;;;;;7.43;56.13;102120.41;679900;29;1169;-89
2024/01/30 00:53:41;;;;;;;13.00;4.57;;;;;;;7.45;56.29;102129.19;677416;29;1037;-89
2024/01/30 00:54:02;;;;;;;11.93;4.43;;;;;;;7.44;56.20;102130.00;679670;29;1495;-88
2024/01/30 00:54:23;;;;;;;7.55;4.45;;;;;;;7.48;56.12;102134.56;677384;29;1244;-89
2024/01/30 00:54:44;;;;;;;6.20;4.72;;;;;;;7.47;55.82;102130.19;674599;29;1235;-89
2024/01/30 00:55:05;;;;;;;7.37;5.27;;;;;;;7.45;55.87;102126.59;676965;29;1695;-89
2024/01/30 00:55:25;;;;;;;7.07;4.82;;;;;;;7.42;56.18;102118.63;677300;29;1394;-89
2024/01/30 00:55:46;;;;;;;7.07;4.82;;;;;;;7.42;55.65;102118.63;674687;29;1296;-89
2024/01/30 00:56:07;;;;;;;6.00;4.72;;;;;;;7.48;56.10;102134.56;676893;29;1607;-89
2024/01/30 00:56:28;;;;;;;6.40;4.75;;;;;;;7.41;56.19;102122.91;677475;29;894;-89
2024/01/30 00:56:48;;;;;;;6.03;4.50;;;;;;;7.38;55.98;102118.41;679954;29;1187;-88
2024/01/30 00:57:09;;;;;;;6.53;4.50;;;;;;;7.44;56.01;102125.72;682324;28;1522;-89
2024/01/30 00:57:29;;;;;;;7.68;4.53;;;;;;;7.44;55.98;102127.41;674509;29;1091;-89
2024/01/30 00:57:50;;;;;;;8.35;4.72;;;;;;;7.43;56.13;102121.28;669601;29;1298;-88
2024/01/30 00:58:11;;;;;;;8.27;4.43;;;;;;;7.44;56.23;102124.81;676150;29;1490;-88
2024/01/30 00:58:32;;;;;;;7.10;4.30;;;;;;;7.50;55.88;102132.97;677979;29;1728;-88
2024/01/30 00:58:52;;;;;;;8.52;4.65;;;;;;;7.49;55.54;102128.59;677275;29;1363;-88
2024/01/30 00:59:13;;;;;;;7.80;4.70;;;;;;;7.50;56.17;102132.97;671803;29;1669;-89
2024/01/30 00:59:34;;;;;;;8.90;4.83;;;;;;;7.43;56.22;102121.28;671606;29;1191;-89
2024/01/30 00:59:54;;;;;;;7.88;4.60;;;;;;;7.42;55.61;102123.81;672134;29;1308;-88
2024/01/30 01:00:18;;;;;;;7.20;4.50;;;;;;;7.49;55.96;102133.78;674752;29;993;-88
2024/01/30 01:00:39;;;;;;;6.22;4.28;;;;;;;7.44;56.18;102127.41;677321;29;1355;-88
2024/01/30 01:00:59;;;;;;;7.30;4.60;;;;;;;7.42;55.76;102123.81;675133;29;1624;-89
2024/01/30 01:01:20;;;;;;;7.75;4.35;;;;;;;7.44;55.86;102132.59;674650;29;1227;-89
2024/01/30 01:01:40;;;;;;;6.30;3.70;;;;;;;7.46;55.93;102125.78;679586;29;1247;-88
2024/01/30 01:02:01;;;;;;;5.07;3.33;;;;;;;7.40;56.05;102116.81;679850;29;1459;-88
2024/01/30 01:02:22;;;;;;;5.30;3.72;;;;;;;7.43;56.04;102130.81;678511;29;1245;-89
2024/01/30 01:02:43;;;;;;;6.95;4.47;;;;;;;7.48;56.33;102134.56;677399;29;1107;-89
2024/01/30 01:03:04;;;;;;;6.65;4.53;;;;;;;7.43;56.14;102129.09;680774;29;1602;-89
2024/01/30 01:03:24;;;;;;;8.00;4.47;;;;;;;7.44;55.98;102127.41;677416;29;1184;-88
2024/01/30 01:03:45;;;;;;;6.90;4.10;;;;;;;7.45;55.75;102124.00;677379;29;1152;-89
2024/01/30 01:04:05;;;;;;;5.73;3.60;;;;;;;7.42;56.07;102118.63;680848;29;1655;-91
2024/01/30 01:04:26;;;;;;;4.00;3.50;;;;;;;7.44;56.18;102117.91;678144;29;1334;-88
2024/01/30 01:04:47;;;;;;;4.60;3.50;;;;;;;7.47;55.95;102131.09;677849;29;1903;-88
2024/01/30 01:05:08;;;;;;;5.73;3.80;;;;;;;7.48;55.90;102134.56;675785;29;1599;-89
2024/01/30 01:05:29;;;;;;;7.90;4.13;;;;;;;7.45;55.46;102124.91;677690;29;1059;-89
2024/01/30 01:05:49;;;;;;;9.27;4.70;;;;;;;7.45;56.28;102121.41;675139;29;1373;-89
2024/01/30 01:06:10;;;;;;;9.00;4.50;;;;;;;7.49;55.60;102132.06;673574;29;1422;-90
2024/01/30 01:06:31;;;;;;;6.75;4.40;;;;;;;7.47;56.17;102128.50;678073;29;1262;-89
2024/01/30 01:06:51;;;;;;;5.53;3.97;;;;;;;7.47;55.97;102128.50;679853;29;1728;-88
2024/01/30 01:07:12;;;;;;;5.57;4.20;;;;;;;7.45;56.32;102124.00;675918;29;1497;-88
2024/01/30 01:07:32;;;;;;;5.80;4.03;;;;;;;7.47;56.06;102125.91;678086;29;1028;-90
2024/01/30 01:07:53;;;;;;;5.38;3.90;;;;;;;7.42;55.99;102121.22;675592;29;1163;-88
2024/01/30 01:08:14;;;;;;;4.60;3.50;;;;;;;7.43;55.79;102120.41;675639;29;1577;-89
2024/01/30 01:08:35;;;;;;;4.20;3.60;;;;;;;7.42;55.55;102122.09;678317;29;1035;-88
2024/01/30 01:08:56;;;;;;;5.13;3.78;;;;;;;7.43;55.62;102120.41;678080;29;1677;-89
2024/01/30 01:09:17;;;;;;;6.20;3.90;;;;;;;7.44;55.80;102123.13;680861;29;1608;-89
2024/01/30 01:09:37;;;;;;;6.07;3.60;;;;;;;7.45;55.69;102118.81;680594;29;1256;-89
2024/01/30 01:09:58;;;;;;;5.32;3.40;;;;;;;7.46;55.89;102123.19;678614;29;1626;-88
2024/01/30 01:10:19;;;;;;;5.82;4.05;;;;;;;7.39;55.68;102114.13;682131;29;1147;-89
2024/01/30 01:10:39;;;;;;;7.65;4.80;;;;;;;7.43;55.97;102118.69;679814;29;1343;-88
2024/01/30 01:11:00;;;;;;;7.73;5.07;;;;;;;7.45;55.87;102119.72;677426;29;1595;-89
2024/01/30 01:11:21;;;;;;;9.20;5.28;;;;;;;7.53;56.30;102127.97;681278;29;1221;-89
2024/01/30 01:11:41;;;;;;;9.07;4.80;;;;;;;7.50;56.21;102118.28;686217;28;1223;-88
2024/01/30 01:12:02;;;;;;;8.83;4.73;;;;;;;7.55;56.18;102123.75;684867;28;1477;-90
2024/01/30 01:12:23;;;;;;;7.53;4.25;;;;;;;7.56;55.71;102120.38;678719;29;1615;-88
2024/01/30 01:12:44;;;;;;;6.88;3.90;;;;;;;7.56;55.89;102117.78;679998;29;1387;-89
2024/01/30 01:13:05;;;;;;;7.35;3.75;;;;;;;7.60;55.70;102124.94;674162;29;1503;-88
2024/01/30 01:13:26;;;;;;;9.77;3.87;;;;;;;7.55;55.81;102115.97;673334;29;743;-88
2024/01/30 01:13:47;;;;;;;11.82;4.70;;;;;;;7.63;55.80;102132.94;676246;29;1281;-89
2024/01/30 01:14:08;;;;;;;12.30;4.75;;;;;;;7.57;55.98;102114.38;678642;29;1569;-89
2024/01/30 01:14:29;;;;;;;9.15;4.78;;;;;;;7.61;55.84;102131.94;678481;29;865;-89
2024/01/30 01:14:50;;;;;;;7.45;4.55;;;;;;;7.57;55.81;102116.97;677601;29;844;-89
2024/01/30 01:15:11;;;;;;;6.30;4.53;;;;;;;7.58;55.54;102121.38;679245;29;1459;-89
2024/01/30 01:15:32;;;;;;;6.43;4.65;;;;;;;7.57;55.58;102116.97;674650;29;1271;-88
2024/01/30 01:15:53;;;;;;;6.18;4.80;;;;;;;7.57;56.10;102123.88;674332;29;999;-88
2024/01/30 01:16:13;;;;;;;8.07;4.93;;;;;;;7.54;55.91;102121.97;672183;29;1600;-88
2024/01/30 01:16:34;;;;;;;8.60;4.80;;;;;;;7.53;55.87;102117.56;678632;29;1482;-88
2024/01/30 01:16:54;;;;;;;7.90;4.40;;;;;;;7.57;56.05;102124.78;677307;29;819;-89
2024/01/30 01:17:15;;;;;;;5.70;3.85;;;;;;;7.55;56.14;102115.97;677149;29;1524;-88
2024/01/30 01:17:37;;;;;;;4.90;3.70;;;;;;;7.56;56.07;102112.59;674841;29;1253;-89
2024/01/30 01:17:58;;;;;;;4.47;3.83;;;;;;;7.59;55.59;102117.06;677161;29;1521;-89
2024/01/30 01:18:18;;;;;;;4.73;4.03;;;;;;;7.54;55.55;102114.16;677352;29;1180;-89
2024/01/30 01:18:41;;;;;;;5.30;4.07;;;;;;;7.57;55.88;102119.56;674759;29;1254;-89
2024/01/30 01:19:03;;;;;;;5.50;3.92;;;;;;;7.57;55.63;102116.97;677665;29;1444;-89
2024/01/30 01:19:23;;;;;;;7.28;4.30;;;;;;;7.58;55.89;102123.97;677939;29;1272;-88
2024/01/30 01:19:44;;;;;;;6.97;4.40;;;;;;;7.56;55.56;102117.78;680014;29;997;-89
2024/01/30 01:20:06;;;;;;;6.85;4.57;;;;;;;7.57;55.26;102119.56;678909;29;1463;-89
2024/01/30 01:20:26;;;;;;;5.90;4.47;;;;;;;7.53;55.73;102113.28;677710;29;1455;-88
2024/01/30 01:20:47;;;;;;;5.33;4.20;;;;;;;7.52;55.86;102113.19;678831;29;1677;-89
2024/01/30 01:21:08;;;;;;;5.05;3.90;;;;;;;7.53;55.70;102125.38;680354;29;1503;-89
2024/01/30 01:21:28;;;;;;;6.25;4.05;;;;;;;7.52;55.99;102115.78;680399;29;1196;-88
2024/01/30 01:21:49;;;;;;;6.72;4.50;;;;;;;7.50;55.62;102117.41;680532;29;737;-88
2024/01/30 01:22:10;;;;;;;8.37;4.70;;;;;;;7.48;55.61;102113.78;677744;29;1524;-89
2024/01/30 01:22:30;;;;;;;7.70;4.70;;;;;;;7.57;55.73;102123.88;677761;29;1171;-88
2024/01/30 01:22:52;;;;;;;6.32;4.05;;;;;;;7.52;55.38;102105.41;677830;29;1154;-89
2024/01/30 01:23:13;;;;;;;4.85;3.80;;;;;;;7.54;55.68;102115.09;674592;29;1538;-89
2024/01/30 01:23:33;;;;;;;4.00;3.50;;;;;;;7.51;55.94;102108.78;675213;29;1222;-89
2024/01/30 01:23:54;;;;;;;6.68;3.80;;;;;;;7.53;55.94;102118.50;677962;29;1288;-87
2024/01/30 01:24:15;;;;;;;7.20;4.20;;;;;;;7.57;56.05;102127.38;674819;29;1564;-89
2024/01/30 01:24:36;;;;;;;7.57;4.22;;;;;;;7.53;55.26;102107.19;677778;29;1303;-89
2024/01/30 01:24:57;;;;;;;5.88;4.20;;;;;;;7.54;55.82;102119.38;678425;29;2037;-90
2024/01/30 01:25:17;;;;;;;5.50;4.15;;;;;;;7.58;55.78;102116.19;680467;29;1028;-89
2024/01/30 01:25:38;;;;;;;6.00;4.30;;;;;;;7.53;55.72;102108.09;677874;29;990;-88
2024/01/30 01:25:59;;;;;;;5.80;4.30;;;;;;;7.52;55.64;102110.59;677628;29;1750;-88
2024/01/30 01:26:20;;;;;;;5.35;4.00;;;;;;;7.55;55.53;102118.56;674994;29;1374;-89
2024/01/30 01:26:41;;;;;;;6.45;4.18;;;;;;;7.55;55.44;102121.16;675199;29;1335;-88
2024/01/30 01:27:03;;;;;;;7.68;4.32;;;;;;;7.57;55.20;102124.78;678259;29;1536;-88
2024/01/30 01:27:23;;;;;;;8.68;4.63;;;;;;;7.54;55.96;102115.09;683136;29;1403;-88
2024/01/30 01:27:51;;;;;;;7.25;4.63;;;;;;;7.57;55.60;102122.19;682932;29;1260;-89
2024/01/30 01:28:11;;;;;;;7.10;4.93;;;;;;;7.55;55.54;102121.16;676864;29;1591;-89
2024/01/30 01:28:32;;;;;;;7.57;4.90;;;;;;;7.52;55.44;102110.59;677662;29;1278;-89
2024/01/30 01:28:53;;;;;;;8.40;4.82;;;;;;;7.53;55.42;102120.19;675350;29;773;-89
2024/01/30 01:29:15;;;;;;;7.38;4.60;;;;;;;7.55;55.60;102121.16;674460;29;1506;-89
2024/01/30 01:29:36;;;;;;;5.50;4.40;;;;;;;7.52;55.57;102115.78;674675;29;979;-89
2024/01/30 01:29:56;;;;;;;6.80;4.73;;;;;;;7.52;55.40;102111.50;675207;29;1083;-89
2024/01/30 01:30:21;;;;;;;7.27;4.80;;;;;;;7.53;55.48;102125.38;675121;29;1203;-89
2024/01/30 01:30:42;;;;;;;6.63;4.28;;;;;;;7.56;55.47;102114.28;675233;29;1203;-89
2024/01/30 01:31:05;;;;;;;5.95;4.07;;;;;;;7.50;55.85;102112.19;676400;29;1991;-89
2024/01/30 01:31:29;;;;;;;6.38;4.25;;;;;;;7.54;55.56;102114.16;673283;29;1325;-88
2024/01/30 01:31:50;;;;;;;10.48;4.38;;;;;;;7.55;55.20;102115.97;680016;29;1149;-88
2024/01/30 01:32:11;;;;;;;11.55;4.65;;;;;;;7.56;55.52;102117.78;674989;29;1913;-89
2024/01/30 01:32:31;;;;;;;13.05;5.20;;;;;;;7.58;55.82;102126.56;677700;29;1642;-88
2024/01/30 01:32:56;;;;;;;11.88;5.55;;;;;;;7.53;55.52;102112.38;683168;29;1162;-89
2024/01/30 01:33:17;;;;;;;8.43;4.55;;;;;;;7.54;55.42;102114.16;674949;29;1671;-88
2024/01/30 01:33:38;;;;;;;4.93;3.92;;;;;;;7.54;55.18;102115.09;675041;29;1471;-88
2024/01/30 01:33:58;;;;;;;7.33;4.30;;;;;;;7.57;55.65;102109.19;677530;29;1493;-88
2024/01/30 01:34:19;;;;;;;8.07;4.30;;;;;;;7.56;55.63;102115.19;677819;29;1101;-88
2024/01/30 01:34:39;;;;;;;7.75;4.10;;;;;;;7.56;55.43;102114.28;677744;29;972;-89
2024/01/30 01:35:00;;;;;;;5.27;3.70;;;;;;;7.52;55.29;102108.91;676084;29;1492;-88
2024/01/30 01:35:27;;;;;;;5.75;4.20;;;;;;;7.61;55.48;102113.75;677797;29;1345;-89
2024/01/30 01:35:48;;;;;;;7.32;4.47;;;;;;;7.60;55.28;102118.84;677797;29;1251;-89
2024/01/30 01:36:08;;;;;;;7.30;4.00;;;;;;;7.53;55.48;102107.19;673874;29;1495;-89
2024/01/30 01:36:29;;;;;;;7.10;4.25;;;;;;;7.57;55.53;102111.78;677598;29;1086;-89
2024/01/30 01:36:50;;;;;;;7.37;4.10;;;;;;;7.57;55.29;102114.38;680470;29;788;-88
2024/01/30 01:37:10;;;;;;;7.80;4.53;;;;;;;7.63;55.13;102129.44;678254;29;1549;-89
2024/01/30 01:37:31;;;;;;;6.45;4.18;;;;;;;7.54;55.38;102104.69;680401;29;1326;-89
2024/01/30 01:37:56;;;;;;;8.20;5.00;;;;;;;7.62;55.27;102122.47;677710;29;1387;-89
2024/01/30 01:38:16;;;;;;;8.60;5.18;;;;;;;7.58;55.48;102112.66;677568;29;1594;-88
2024/01/30 01:38:37;;;;;;;7.27;4.80;;;;;;;7.56;55.19;102111.69;677688;29;1218;-89
2024/01/30 01:38:58;;;;;;;6.57;4.20;;;;;;;7.52;55.28;102108.00;678583;29;1562;-89
2024/01/30 01:39:18;;;;;;;6.65;4.07;;;;;;;7.54;55.60;102112.50;677694;29;1307;-89
2024/01/30 01:39:39;;;;;;;7.27;4.27;;;;;;;7.52;55.41;102105.41;679885;29;1158;-89
2024/01/30 01:40:00;;;;;;;6.87;4.20;;;;;;;7.51;55.18;102111.41;681051;28;1746;-89
2024/01/30 01:40:24;;;;;;;4.95;3.72;;;;;;;7.57;55.29;102124.78;685781;28;1166;-88
2024/01/30 01:40:44;;;;;;;5.70;3.80;;;;;;;7.54;55.52;102119.38;683024;29;937;-89
2024/01/30 01:41:05;;;;;;;6.38;3.60;;;;;;;7.50;55.63;102117.41;681839;29;1578;-89
2024/01/30 01:41:30;;;;;;;6.30;3.50;;;;;;;7.59;55.03;102122.25;680424;29;1170;-88
2024/01/30 01:41:51;;;;;;;5.68;3.75;;;;;;;7.57;55.20;102114.38;675207;29;1425;-89
2024/01/30 01:42:12;;;;;;;5.45;4.07;;;;;;;7.53;55.34;102113.28;676975;29;1200;-89
2024/01/30 01:42:32;;;;;;;6.10;4.33;;;;;;;7.58;55.57;102125.66;677717;29;1128;-88
2024/01/30 01:42:54;;;;;;;6.35;4.20;;;;;;;7.57;55.31;102124.78;680454;29;1392;-88
2024/01/30 01:43:15;;;;;;;6.55;4.07;;;;;;;7.52;55.39;102106.31;679844;29;1520;-88
2024/01/30 01:43:37;;;;;;;11.30;4.30;;;;;;;7.58;55.41;102116.19;675109;29;1136;-88
2024/01/30 01:43:59;;;;;;;11.07;4.35;;;;;;;7.55;55.10;102110.78;677627;29;1555;-89
2024/01/30 01:44:20;;;;;;;10.98;4.75;;;;;;;7.54;55.42;102111.56;677625;29;1629;-88
2024/01/30 01:44:40;;;;;;;7.63;4.68;;;;;;;7.52;55.32;102108.00;676210;29;1932;-89
2024/01/30 01:45:01;;;;;;;7.32;4.75;;;;;;;7.51;55.26;102103.59;677212;29;1626;-88
2024/01/30 01:45:22;;;;;;;6.83;4.53;;;;;;;7.52;55.50;102111.50;675145;29;1141;-88
2024/01/30 01:45:42;;;;;;;6.03;4.25;;;;;;;7.52;55.31;102113.19;672599;29;1192;-89
2024/01/30 01:46:03;;;;;;;5.90;4.18;;;;;;;7.53;55.26;102112.38;672419;29;1530;-89
2024/01/30 01:46:27;;;;;;;6.67;3.80;;;;;;;7.49;55.12;102106.09;675124;29;1194;-88
2024/01/30 01:46:47;;;;;;;8.73;4.88;;;;;;;7.49;55.22;102106.09;672670;29;1203;-89
2024/01/30 01:47:08;;;;;;;9.82;5.25;;;;;;;7.53;55.61;102115.91;673968;29;1042;-89
2024/01/30 01:47:29;;;;;;;8.73;5.30;;;;;;;7.54;55.20;102119.38;677804;29;1234;-89
2024/01/30 01:47:53;;;;;;;6.75;4.50;;;;;;;7.50;55.49;102107.00;677715;29;1584;-89
2024/01/30 01:48:14;;;;;;;6.25;4.38;;;;;;;7.52;55.28;102110.59;677504;29;1523;-89
2024/01/30 01:48:34;;;;;;;6.40;4.40;;;;;;;7.52;55.58;102116.69;675131;29;1208;-89
2024/01/30 01:48:56;;;;;;;6.43;4.60;;;;;;;7.57;55.20;102121.25;675168;29;1203;-89
2024/01/30 01:49:19;;;;;;;5.05;3.90;;;;;;;7.53;55.10;102113.28;674889;29;1556;-89
2024/01/30 01:49:40;;;;;;;5.15;3.35;;;;;;;7.54;55.48;102124.56;674556;29;1413;-89
2024/01/30 01:50:00;;;;;;;4.55;3.10;;;;;;;7.52;55.23;102115.78;674544;29;1517;-88